sensor_id;sensor_type;location;lat;lon;timestamp;pressure;altitude;pressure_sealevel;temperature;humidity
39267;BME280;24967;51.154;13.812;2023-03-15T00:00:15;98775.75;;;3.31;70.61
39267;BME280;24967;51.154;13.812;2023-03-15T00:02:42;98786.75;;;3.25;69.78
39267;BME280;24967;51.154;13.812;2023-03-15T00:05:11;98792.50;;;3.19;70.20
39267;BME280;24967;51.154;13.812;2023-03-15T00:07:38;98788.66;;;3.23;69.98
39267;BME280;24967;51.154;13.812;2023-03-15T00:10:06;98790.13;;;3.05;70.19
39267;BME280;24967;51.154;13.812;2023-03-15T00:12:32;98796.34;;;3.04;70.29
39267;BME280;24967;51.154;13.812;2023-03-15T00:14:59;98794.63;;;3.25;69.96
39267;BME280;24967;51.154;13.812;2023-03-15T00:17:25;98803.22;;;3.27;69.44
39267;BME280;24967;51.154;13.812;2023-03-15T00:19:52;98806.78;;;3.26;68.69
39267;BME280;24967;51.154;13.812;2023-03-15T00:22:20;98803.56;;;3.45;68.11
39267;BME280;24967;51.154;13.812;2023-03-15T00:24:47;98811.44;;;3.45;68.66
39267;BME280;24967;51.154;13.812;2023-03-15T00:27:13;98815.22;;;3.63;68.45
39267;BME280;24967;51.154;13.812;2023-03-15T00:29:40;98815.06;;;3.65;67.80
39267;BME280;24967;51.154;13.812;2023-03-15T00:32:07;98821.41;;;3.62;67.92
39267;BME280;24967;51.154;13.812;2023-03-15T00:34:33;98820.91;;;3.68;67.86
39267;BME280;24967;51.154;13.812;2023-03-15T00:37:00;98822.69;;;3.68;67.95
39267;BME280;24967;51.154;13.812;2023-03-15T00:39:28;98832.38;;;3.67;67.50
39267;BME280;24967;51.154;13.812;2023-03-15T00:41:54;98824.97;;;3.73;67.68
39267;BME280;24967;51.154;13.812;2023-03-15T00:44:21;98830.78;;;3.87;67.32
39267;BME280;24967;51.154;13.812;2023-03-15T00:46:48;98837.13;;;3.85;67.24
39267;BME280;24967;51.154;13.812;2023-03-15T00:49:15;98835.00;;;3.79;67.70
39267;BME280;24967;51.154;13.812;2023-03-15T00:51:41;98837.69;;;3.88;66.22
39267;BME280;24967;51.154;13.812;2023-03-15T00:54:09;98852.69;;;3.77;67.25
39267;BME280;24967;51.154;13.812;2023-03-15T00:56:39;98847.91;;;3.71;67.06
39267;BME280;24967;51.154;13.812;2023-03-15T00:59:06;98845.69;;;3.55;67.51
39267;BME280;24967;51.154;13.812;2023-03-15T01:01:32;98852.28;;;3.38;67.44
39267;BME280;24967;51.154;13.812;2023-03-15T01:03:59;98851.69;;;3.23;68.03
39267;BME280;24967;51.154;13.812;2023-03-15T01:06:27;98851.97;;;2.97;68.57
39267;BME280;24967;51.154;13.812;2023-03-15T01:08:54;98857.44;;;2.94;68.80
39267;BME280;24967;51.154;13.812;2023-03-15T01:11:23;98848.13;;;2.79;69.52
39267;BME280;24967;51.154;13.812;2023-03-15T01:13:53;98848.50;;;2.86;70.25
39267;BME280;24967;51.154;13.812;2023-03-15T01:16:21;98858.13;;;2.96;70.00
39267;BME280;24967;51.154;13.812;2023-03-15T01:18:47;98854.31;;;2.78;70.63
39267;BME280;24967;51.154;13.812;2023-03-15T01:21:16;98853.72;;;2.74;70.48
39267;BME280;24967;51.154;13.812;2023-03-15T01:23:42;98870.34;;;2.97;71.10
39267;BME280;24967;51.154;13.812;2023-03-15T01:26:15;98863.41;;;2.96;70.81
39267;BME280;24967;51.154;13.812;2023-03-15T01:28:42;98864.25;;;2.97;70.67
39267;BME280;24967;51.154;13.812;2023-03-15T01:31:16;98869.97;;;2.91;70.52
39267;BME280;24967;51.154;13.812;2023-03-15T01:33:42;98870.44;;;2.96;70.58
39267;BME280;24967;51.154;13.812;2023-03-15T01:36:10;98871.28;;;2.96;70.97
39267;BME280;24967;51.154;13.812;2023-03-15T01:38:37;98874.16;;;3.05;70.78
39267;BME280;24967;51.154;13.812;2023-03-15T01:41:04;98881.44;;;3.12;70.15
39267;BME280;24967;51.154;13.812;2023-03-15T01:43:31;98876.78;;;3.16;69.97
39267;BME280;24967;51.154;13.812;2023-03-15T01:46:14;98872.59;;;3.25;70.02
39267;BME280;24967;51.154;13.812;2023-03-15T01:48:45;98885.50;;;3.28;69.97
39267;BME280;24967;51.154;13.812;2023-03-15T01:51:18;98887.25;;;3.38;69.56
39267;BME280;24967;51.154;13.812;2023-03-15T01:53:49;98879.13;;;3.41;68.88
39267;BME280;24967;51.154;13.812;2023-03-15T01:56:17;98875.69;;;3.52;67.78
39267;BME280;24967;51.154;13.812;2023-03-15T01:58:45;98880.69;;;3.44;68.31
39267;BME280;24967;51.154;13.812;2023-03-15T02:01:15;98880.09;;;3.40;68.50
39267;BME280;24967;51.154;13.812;2023-03-15T02:03:43;98879.19;;;3.30;68.85
39267;BME280;24967;51.154;13.812;2023-03-15T02:06:15;98878.69;;;3.25;69.02
39267;BME280;24967;51.154;13.812;2023-03-15T02:08:48;98885.84;;;3.23;68.86
39267;BME280;24967;51.154;13.812;2023-03-15T02:11:18;98882.50;;;3.32;69.05
39267;BME280;24967;51.154;13.812;2023-03-15T02:13:47;98885.72;;;3.36;68.69
39267;BME280;24967;51.154;13.812;2023-03-15T02:16:16;98880.59;;;3.23;68.59
39267;BME280;24967;51.154;13.812;2023-03-15T02:18:43;98885.50;;;3.28;69.33
39267;BME280;24967;51.154;13.812;2023-03-15T02:21:17;98888.38;;;3.25;68.78
39267;BME280;24967;51.154;13.812;2023-03-15T02:23:53;98886.66;;;3.24;68.41
39267;BME280;24967;51.154;13.812;2023-03-15T02:26:28;98889.06;;;3.04;68.79
39267;BME280;24967;51.154;13.812;2023-03-15T02:29:00;98901.97;;;3.18;69.40
39267;BME280;24967;51.154;13.812;2023-03-15T02:31:27;98893.38;;;3.16;69.23
39267;BME280;24967;51.154;13.812;2023-03-15T02:33:53;98899.34;;;3.18;68.48
39267;BME280;24967;51.154;13.812;2023-03-15T02:36:22;98900.28;;;3.17;69.56
39267;BME280;24967;51.154;13.812;2023-03-15T02:38:49;98902.09;;;3.17;69.19
39267;BME280;24967;51.154;13.812;2023-03-15T02:41:19;98901.75;;;3.21;68.92
39267;BME280;24967;51.154;13.812;2023-03-15T02:43:48;98902.22;;;3.15;69.24
39267;BME280;24967;51.154;13.812;2023-03-15T02:46:18;98907.72;;;3.12;69.37
39267;BME280;24967;51.154;13.812;2023-03-15T02:48:47;98912.84;;;3.25;68.92
39267;BME280;24967;51.154;13.812;2023-03-15T02:51:17;98912.84;;;3.25;68.71
39267;BME280;24967;51.154;13.812;2023-03-15T02:53:45;98917.63;;;3.09;69.21
39267;BME280;24967;51.154;13.812;2023-03-15T02:56:11;98921.91;;;3.10;69.25
39267;BME280;24967;51.154;13.812;2023-03-15T02:58:39;98929.06;;;3.19;69.07
39267;BME280;24967;51.154;13.812;2023-03-15T03:01:05;98928.47;;;3.15;69.01
39267;BME280;24967;51.154;13.812;2023-03-15T03:03:34;98927.97;;;2.88;69.44
39267;BME280;24967;51.154;13.812;2023-03-15T03:06:00;98926.91;;;3.02;69.96
39267;BME280;24967;51.154;13.812;2023-03-15T03:08:27;98934.19;;;2.98;69.66
39267;BME280;24967;51.154;13.812;2023-03-15T03:10:53;98931.78;;;2.95;69.76
39267;BME280;24967;51.154;13.812;2023-03-15T03:13:20;98934.06;;;3.11;69.33
39267;BME280;24967;51.154;13.812;2023-03-15T03:15:48;98940.00;;;2.90;69.79
39267;BME280;24967;51.154;13.812;2023-03-15T03:18:22;98948.13;;;2.87;69.83
39267;BME280;24967;51.154;13.812;2023-03-15T03:20:50;98949.44;;;2.93;70.81
39267;BME280;24967;51.154;13.812;2023-03-15T03:23:20;98946.84;;;3.04;70.65
39267;BME280;24967;51.154;13.812;2023-03-15T03:25:50;98951.53;;;3.34;68.52
39267;BME280;24967;51.154;13.812;2023-03-15T03:28:16;98957.47;;;3.14;68.90
39267;BME280;24967;51.154;13.812;2023-03-15T03:30:43;98961.56;;;3.18;69.04
39267;BME280;24967;51.154;13.812;2023-03-15T03:33:09;98958.69;;;3.21;68.87
39267;BME280;24967;51.154;13.812;2023-03-15T03:35:36;98958.19;;;3.05;68.74
39267;BME280;24967;51.154;13.812;2023-03-15T03:38:04;98969.72;;;2.80;69.83
39267;BME280;24967;51.154;13.812;2023-03-15T03:40:30;98966.63;;;2.50;71.14
39267;BME280;24967;51.154;13.812;2023-03-15T03:42:57;98979.13;;;2.47;71.78
39267;BME280;24967;51.154;13.812;2023-03-15T03:45:24;98982.34;;;2.39;71.82
39267;BME280;24967;51.154;13.812;2023-03-15T03:47:50;98984.97;;;2.39;72.07
39267;BME280;24967;51.154;13.812;2023-03-15T03:50:17;98985.88;;;2.27;72.05
39267;BME280;24967;51.154;13.812;2023-03-15T03:52:43;98988.47;;;2.27;72.78
39267;BME280;24967;51.154;13.812;2023-03-15T03:55:11;98995.44;;;2.15;73.08
39267;BME280;24967;51.154;13.812;2023-03-15T03:57:38;98995.03;;;2.09;73.11
39267;BME280;24967;51.154;13.812;2023-03-15T04:00:06;98999.44;;;2.08;73.13
39267;BME280;24967;51.154;13.812;2023-03-15T04:02:33;98995.69;;;1.99;73.45
39267;BME280;24967;51.154;13.812;2023-03-15T04:05:00;99003.84;;;2.08;73.49
39267;BME280;24967;51.154;13.812;2023-03-15T04:07:27;99000.84;;;2.01;73.94
39267;BME280;24967;51.154;13.812;2023-03-15T04:09:53;98997.44;;;1.88;74.70
39267;BME280;24967;51.154;13.812;2023-03-15T04:12:21;99000.97;;;1.87;74.64
39267;BME280;24967;51.154;13.812;2023-03-15T04:14:47;99008.75;;;1.88;74.23
39267;BME280;24967;51.154;13.812;2023-03-15T04:17:14;99010.16;;;2.05;73.97
39267;BME280;24967;51.154;13.812;2023-03-15T04:19:40;99017.78;;;2.08;73.73
39267;BME280;24967;51.154;13.812;2023-03-15T04:22:11;99019.38;;;2.11;73.71
39267;BME280;24967;51.154;13.812;2023-03-15T04:24:39;99024.50;;;2.12;73.60
39267;BME280;24967;51.154;13.812;2023-03-15T04:27:06;99034.44;;;2.20;73.55
39267;BME280;24967;51.154;13.812;2023-03-15T04:29:34;99030.16;;;2.19;73.31
39267;BME280;24967;51.154;13.812;2023-03-15T04:32:01;99037.91;;;2.20;72.99
39267;BME280;24967;51.154;13.812;2023-03-15T04:34:28;99037.72;;;2.11;73.32
39267;BME280;24967;51.154;13.812;2023-03-15T04:36:55;99051.19;;;2.06;74.24
39267;BME280;24967;51.154;13.812;2023-03-15T04:39:22;99048.34;;;2.09;73.29
39267;BME280;24967;51.154;13.812;2023-03-15T04:41:49;99058.81;;;2.09;73.51
39267;BME280;24967;51.154;13.812;2023-03-15T04:44:16;99051.44;;;2.27;73.23
39267;BME280;24967;51.154;13.812;2023-03-15T04:46:44;99045.28;;;2.15;72.81
39267;BME280;24967;51.154;13.812;2023-03-15T04:49:11;99058.31;;;2.04;73.25
39267;BME280;24967;51.154;13.812;2023-03-15T04:51:37;99062.56;;;2.18;73.18
39267;BME280;24967;51.154;13.812;2023-03-15T04:54:04;99069.38;;;2.20;72.49
39267;BME280;24967;51.154;13.812;2023-03-15T04:56:30;99074.78;;;1.93;73.51
39267;BME280;24967;51.154;13.812;2023-03-15T04:58:57;99078.69;;;1.88;73.17
39267;BME280;24967;51.154;13.812;2023-03-15T05:01:27;99084.63;;;2.02;73.22
39267;BME280;24967;51.154;13.812;2023-03-15T05:03:55;99085.34;;;2.04;73.55
39267;BME280;24967;51.154;13.812;2023-03-15T05:06:22;99081.28;;;2.00;73.00
39267;BME280;24967;51.154;13.812;2023-03-15T05:08:49;99091.63;;;2.15;72.39
39267;BME280;24967;51.154;13.812;2023-03-15T05:11:15;99086.69;;;2.23;72.06
39267;BME280;24967;51.154;13.812;2023-03-15T05:13:42;99089.47;;;2.33;72.16
39267;BME280;24967;51.154;13.812;2023-03-15T05:16:08;99096.84;;;2.15;72.18
39267;BME280;24967;51.154;13.812;2023-03-15T05:18:35;99104.06;;;2.24;71.47
39267;BME280;24967;51.154;13.812;2023-03-15T05:21:03;99112.28;;;2.19;71.61
39267;BME280;24967;51.154;13.812;2023-03-15T05:23:30;99116.91;;;2.16;72.27
39267;BME280;24967;51.154;13.812;2023-03-15T05:25:58;99126.34;;;2.05;71.98
39267;BME280;24967;51.154;13.812;2023-03-15T05:28:25;99114.94;;;2.06;72.69
39267;BME280;24967;51.154;13.812;2023-03-15T05:30:54;99132.88;;;2.00;72.84
39267;BME280;24967;51.154;13.812;2023-03-15T05:33:21;99130.25;;;2.13;72.42
39267;BME280;24967;51.154;13.812;2023-03-15T05:35:49;99131.91;;;2.14;72.69
39267;BME280;24967;51.154;13.812;2023-03-15T05:38:18;99140.31;;;2.19;72.73
39267;BME280;24967;51.154;13.812;2023-03-15T05:40:50;99145.13;;;2.12;72.29
39267;BME280;24967;51.154;13.812;2023-03-15T05:43:17;99147.97;;;2.22;72.61
39267;BME280;24967;51.154;13.812;2023-03-15T05:45:43;99153.81;;;2.25;72.45
39267;BME280;24967;51.154;13.812;2023-03-15T05:48:11;99153.53;;;2.04;71.84
39267;BME280;24967;51.154;13.812;2023-03-15T05:50:38;99155.84;;;2.09;72.24
39267;BME280;24967;51.154;13.812;2023-03-15T05:53:04;99159.31;;;1.97;72.57
39267;BME280;24967;51.154;13.812;2023-03-15T05:55:32;99163.06;;;2.05;72.58
39267;BME280;24967;51.154;13.812;2023-03-15T05:58:01;99176.09;;;1.94;72.80
39267;BME280;24967;51.154;13.812;2023-03-15T06:00:27;99172.19;;;2.25;72.64
39267;BME280;24967;51.154;13.812;2023-03-15T06:02:54;99179.44;;;2.09;72.57
39267;BME280;24967;51.154;13.812;2023-03-15T06:05:20;99182.91;;;1.97;72.61
39267;BME280;24967;51.154;13.812;2023-03-15T06:07:46;99177.53;;;1.98;72.66
39267;BME280;24967;51.154;13.812;2023-03-15T06:10:13;99187.28;;;1.96;73.53
39267;BME280;24967;51.154;13.812;2023-03-15T06:12:41;99182.97;;;2.21;73.26
39267;BME280;24967;51.154;13.812;2023-03-15T06:15:09;99191.91;;;2.18;73.62
39267;BME280;24967;51.154;13.812;2023-03-15T06:17:36;99191.41;;;2.00;73.12
39267;BME280;24967;51.154;13.812;2023-03-15T06:20:03;99201.25;;;2.10;73.47
39267;BME280;24967;51.154;13.812;2023-03-15T06:22:29;99194.75;;;2.15;73.48
39267;BME280;24967;51.154;13.812;2023-03-15T06:24:56;99194.94;;;2.25;72.79
39267;BME280;24967;51.154;13.812;2023-03-15T06:27:22;99202.91;;;2.36;72.27
39267;BME280;24967;51.154;13.812;2023-03-15T06:29:50;99212.69;;;2.34;72.39
39267;BME280;24967;51.154;13.812;2023-03-15T06:32:18;99208.13;;;2.62;71.87
39267;BME280;24967;51.154;13.812;2023-03-15T06:34:44;99219.19;;;2.28;72.35
39267;BME280;24967;51.154;13.812;2023-03-15T06:37:11;99224.41;;;2.41;72.00
39267;BME280;24967;51.154;13.812;2023-03-15T06:39:38;99218.91;;;2.57;71.55
39267;BME280;24967;51.154;13.812;2023-03-15T06:42:05;99224.59;;;2.51;72.21
39267;BME280;24967;51.154;13.812;2023-03-15T06:44:32;99229.84;;;2.64;71.42
39267;BME280;24967;51.154;13.812;2023-03-15T06:47:00;99230.69;;;2.39;71.71
39267;BME280;24967;51.154;13.812;2023-03-15T06:49:27;99232.38;;;2.52;71.80
39267;BME280;24967;51.154;13.812;2023-03-15T06:51:55;99238.69;;;2.50;72.46
39267;BME280;24967;51.154;13.812;2023-03-15T06:54:21;99232.97;;;2.82;71.96
39267;BME280;24967;51.154;13.812;2023-03-15T06:56:48;99240.84;;;2.69;71.04
39267;BME280;24967;51.154;13.812;2023-03-15T06:59:15;99245.00;;;2.84;70.95
39267;BME280;24967;51.154;13.812;2023-03-15T07:01:42;99241.03;;;2.91;70.71
39267;BME280;24967;51.154;13.812;2023-03-15T07:04:09;99238.34;;;3.04;70.73
39267;BME280;24967;51.154;13.812;2023-03-15T07:06:36;99232.81;;;3.20;70.43
39267;BME280;24967;51.154;13.812;2023-03-15T07:09:03;99238.88;;;3.09;70.42
39267;BME280;24967;51.154;13.812;2023-03-15T07:11:30;99245.97;;;3.20;70.28
39267;BME280;24967;51.154;13.812;2023-03-15T07:13:57;99247.22;;;3.14;70.06
39267;BME280;24967;51.154;13.812;2023-03-15T07:16:24;99254.13;;;3.28;70.14
39267;BME280;24967;51.154;13.812;2023-03-15T07:18:50;99238.69;;;3.48;69.36
39267;BME280;24967;51.154;13.812;2023-03-15T07:21:21;99242.06;;;3.26;68.84
39267;BME280;24967;51.154;13.812;2023-03-15T07:23:47;99242.84;;;3.39;69.81
39267;BME280;24967;51.154;13.812;2023-03-15T07:26:14;99250.59;;;3.40;69.51
39267;BME280;24967;51.154;13.812;2023-03-15T07:28:40;99244.28;;;3.67;69.33
39267;BME280;24967;51.154;13.812;2023-03-15T07:31:09;99241.03;;;3.63;68.53
39267;BME280;24967;51.154;13.812;2023-03-15T07:33:36;99245.53;;;3.85;68.68
39267;BME280;24967;51.154;13.812;2023-03-15T07:36:04;99252.81;;;3.93;68.53
39267;BME280;24967;51.154;13.812;2023-03-15T07:38:33;99253.41;;;3.50;68.60
39267;BME280;24967;51.154;13.812;2023-03-15T07:41:00;99260.16;;;3.65;68.43
39267;BME280;24967;51.154;13.812;2023-03-15T07:43:27;99262.69;;;3.67;67.63
39267;BME280;24967;51.154;13.812;2023-03-15T07:45:54;99266.28;;;3.77;67.76
39267;BME280;24967;51.154;13.812;2023-03-15T07:48:20;99257.38;;;3.91;67.36
39267;BME280;24967;51.154;13.812;2023-03-15T07:50:47;99264.75;;;4.21;66.85
39267;BME280;24967;51.154;13.812;2023-03-15T07:53:13;99268.59;;;4.28;66.88
39267;BME280;24967;51.154;13.812;2023-03-15T07:55:41;99265.38;;;4.47;66.09
39267;BME280;24967;51.154;13.812;2023-03-15T07:58:09;99254.97;;;4.46;65.75
39267;BME280;24967;51.154;13.812;2023-03-15T08:00:35;99266.81;;;4.63;64.84
39267;BME280;24967;51.154;13.812;2023-03-15T08:03:02;99273.28;;;4.58;64.12
39267;BME280;24967;51.154;13.812;2023-03-15T08:05:29;99268.25;;;4.55;64.16
39267;BME280;24967;51.154;13.812;2023-03-15T08:07:56;99274.97;;;4.48;64.44
39267;BME280;24967;51.154;13.812;2023-03-15T08:10:22;99283.31;;;4.53;64.56
39267;BME280;24967;51.154;13.812;2023-03-15T08:12:50;99282.75;;;4.72;64.39
39267;BME280;24967;51.154;13.812;2023-03-15T08:15:18;99284.97;;;5.11;65.60
39267;BME280;24967;51.154;13.812;2023-03-15T08:17:46;99297.56;;;5.18;64.92
39267;BME280;24967;51.154;13.812;2023-03-15T08:20:14;99294.53;;;5.34;64.46
39267;BME280;24967;51.154;13.812;2023-03-15T08:22:41;99296.00;;;5.16;63.87
39267;BME280;24967;51.154;13.812;2023-03-15T08:25:11;99300.81;;;4.88;64.15
39267;BME280;24967;51.154;13.812;2023-03-15T08:27:38;99302.38;;;4.79;64.16
39267;BME280;24967;51.154;13.812;2023-03-15T08:30:08;99302.47;;;4.78;64.08
39267;BME280;24967;51.154;13.812;2023-03-15T08:32:36;99309.06;;;4.61;67.06
39267;BME280;24967;51.154;13.812;2023-03-15T08:35:04;99320.19;;;4.65;68.00
39267;BME280;24967;51.154;13.812;2023-03-15T08:37:31;99323.19;;;4.49;68.96
39267;BME280;24967;51.154;13.812;2023-03-15T08:40:00;99336.25;;;4.26;71.96
39267;BME280;24967;51.154;13.812;2023-03-15T08:42:33;99349.06;;;3.96;72.92
39267;BME280;24967;51.154;13.812;2023-03-15T08:45:00;99346.28;;;3.86;75.53
39267;BME280;24967;51.154;13.812;2023-03-15T08:47:28;99338.34;;;3.99;75.64
39267;BME280;24967;51.154;13.812;2023-03-15T08:49:54;99354.97;;;3.75;75.47
39267;BME280;24967;51.154;13.812;2023-03-15T08:52:21;99351.00;;;3.33;77.29
39267;BME280;24967;51.154;13.812;2023-03-15T08:54:47;99364.84;;;3.48;78.21
39267;BME280;24967;51.154;13.812;2023-03-15T08:57:14;99366.78;;;3.20;80.32
39267;BME280;24967;51.154;13.812;2023-03-15T08:59:41;99372.06;;;3.07;82.00
39267;BME280;24967;51.154;13.812;2023-03-15T09:02:08;99376.72;;;3.04;83.73
39267;BME280;24967;51.154;13.812;2023-03-15T09:04:39;99374.81;;;3.18;83.30
39267;BME280;24967;51.154;13.812;2023-03-15T09:07:05;99375.41;;;3.22;84.68
39267;BME280;24967;51.154;13.812;2023-03-15T09:09:31;99383.31;;;3.22;84.66
39267;BME280;24967;51.154;13.812;2023-03-15T09:11:58;99385.84;;;2.98;86.54
39267;BME280;24967;51.154;13.812;2023-03-15T09:14:26;99389.72;;;3.18;85.27
39267;BME280;24967;51.154;13.812;2023-03-15T09:16:52;99385.13;;;3.09;87.15
39267;BME280;24967;51.154;13.812;2023-03-15T09:19:19;99390.69;;;3.04;88.54
39267;BME280;24967;51.154;13.812;2023-03-15T09:21:46;99385.75;;;3.12;87.96
39267;BME280;24967;51.154;13.812;2023-03-15T09:24:13;99378.88;;;3.59;87.04
39267;BME280;24967;51.154;13.812;2023-03-15T09:26:39;99393.16;;;3.68;85.25
39267;BME280;24967;51.154;13.812;2023-03-15T09:29:06;99389.78;;;3.66;85.40
39267;BME280;24967;51.154;13.812;2023-03-15T09:31:33;99388.66;;;3.70;86.25
39267;BME280;24967;51.154;13.812;2023-03-15T09:34:00;99394.03;;;3.56;86.09
39267;BME280;24967;51.154;13.812;2023-03-15T09:36:26;99388.28;;;3.87;85.28
39267;BME280;24967;51.154;13.812;2023-03-15T09:38:54;99393.72;;;4.08;84.55
39267;BME280;24967;51.154;13.812;2023-03-15T09:41:39;99392.44;;;4.14;83.45
39267;BME280;24967;51.154;13.812;2023-03-15T09:44:13;99390.22;;;4.21;82.62
39267;BME280;24967;51.154;13.812;2023-03-15T09:46:52;99383.81;;;4.36;81.28
39267;BME280;24967;51.154;13.812;2023-03-15T09:49:31;99392.72;;;4.22;81.92
39267;BME280;24967;51.154;13.812;2023-03-15T09:52:01;99388.09;;;4.37;80.70
39267;BME280;24967;51.154;13.812;2023-03-15T09:54:38;99394.94;;;4.40;79.80
39267;BME280;24967;51.154;13.812;2023-03-15T09:57:10;99392.13;;;4.19;80.00
39267;BME280;24967;51.154;13.812;2023-03-15T09:59:42;99395.34;;;4.22;79.53
39267;BME280;24967;51.154;13.812;2023-03-15T10:02:17;99391.84;;;4.10;78.41
39267;BME280;24967;51.154;13.812;2023-03-15T10:04:46;99399.66;;;4.23;78.63
39267;BME280;24967;51.154;13.812;2023-03-15T10:07:15;99396.00;;;4.37;78.54
39267;BME280;24967;51.154;13.812;2023-03-15T10:09:44;99398.69;;;4.59;78.49
39267;BME280;24967;51.154;13.812;2023-03-15T10:12:12;99404.53;;;4.17;77.16
39267;BME280;24967;51.154;13.812;2023-03-15T10:14:55;99412.28;;;4.07;78.02
39267;BME280;24967;51.154;13.812;2023-03-15T10:17:34;99413.09;;;4.31;77.87
39267;BME280;24967;51.154;13.812;2023-03-15T10:20:05;99409.78;;;4.41;76.58
39267;BME280;24967;51.154;13.812;2023-03-15T10:22:39;99411.94;;;4.47;75.99
39267;BME280;24967;51.154;13.812;2023-03-15T10:25:13;99409.81;;;4.52;75.96
39267;BME280;24967;51.154;13.812;2023-03-15T10:27:45;99413.41;;;4.51;75.99
39267;BME280;24967;51.154;13.812;2023-03-15T10:30:16;99415.81;;;4.65;75.43
39267;BME280;24967;51.154;13.812;2023-03-15T10:32:44;99414.53;;;4.35;75.30
39267;BME280;24967;51.154;13.812;2023-03-15T10:35:14;99411.97;;;3.99;76.55
39267;BME280;24967;51.154;13.812;2023-03-15T10:37:41;99414.53;;;4.35;76.04
39267;BME280;24967;51.154;13.812;2023-03-15T10:40:11;99428.13;;;4.18;76.98
39267;BME280;24967;51.154;13.812;2023-03-15T10:42:40;99425.28;;;3.60;78.60
39267;BME280;24967;51.154;13.812;2023-03-15T10:45:17;99429.88;;;3.57;80.42
39267;BME280;24967;51.154;13.812;2023-03-15T10:47:46;99433.66;;;3.65;81.90
39267;BME280;24967;51.154;13.812;2023-03-15T10:50:17;99439.38;;;3.83;80.99
39267;BME280;24967;51.154;13.812;2023-03-15T10:52:53;99438.84;;;3.91;80.67
39267;BME280;24967;51.154;13.812;2023-03-15T10:55:29;99440.38;;;4.06;79.49
39267;BME280;24967;51.154;13.812;2023-03-15T10:58:00;99433.84;;;3.99;79.02
39267;BME280;24967;51.154;13.812;2023-03-15T11:00:37;99435.47;;;3.89;78.68
39267;BME280;24967;51.154;13.812;2023-03-15T11:03:06;99437.13;;;4.03;79.16
39267;BME280;24967;51.154;13.812;2023-03-15T11:05:41;99435.47;;;4.37;78.21
39267;BME280;24967;51.154;13.812;2023-03-15T11:08:11;99423.06;;;4.50;78.25
39267;BME280;24967;51.154;13.812;2023-03-15T11:10:40;99432.31;;;4.56;76.59
39267;BME280;24967;51.154;13.812;2023-03-15T11:13:12;99429.75;;;4.78;76.20
39267;BME280;24967;51.154;13.812;2023-03-15T11:15:46;99435.53;;;4.95;74.53
39267;BME280;24967;51.154;13.812;2023-03-15T11:18:17;99429.25;;;4.73;72.56
39267;BME280;24967;51.154;13.812;2023-03-15T11:20:44;99432.47;;;5.23;72.49
39267;BME280;24967;51.154;13.812;2023-03-15T11:23:14;99436.72;;;5.02;70.56
39267;BME280;24967;51.154;13.812;2023-03-15T11:25:43;99426.44;;;4.88;69.66
39267;BME280;24967;51.154;13.812;2023-03-15T11:28:15;99428.22;;;4.98;70.46
39267;BME280;24967;51.154;13.812;2023-03-15T11:30:43;99428.81;;;5.02;69.13
39267;BME280;24967;51.154;13.812;2023-03-15T11:33:18;99431.94;;;5.07;69.34
39267;BME280;24967;51.154;13.812;2023-03-15T11:35:47;99439.84;;;5.07;68.59
39267;BME280;24967;51.154;13.812;2023-03-15T11:38:21;99435.84;;;4.79;69.10
39267;BME280;24967;51.154;13.812;2023-03-15T11:40:53;99436.69;;;4.79;68.08
39267;BME280;24967;51.154;13.812;2023-03-15T11:43:24;99433.63;;;5.08;68.44
39267;BME280;24967;51.154;13.812;2023-03-15T11:45:55;99431.84;;;5.09;68.50
39267;BME280;24967;51.154;13.812;2023-03-15T11:48:26;99431.00;;;5.53;68.07
39267;BME280;24967;51.154;13.812;2023-03-15T11:50:54;99431.72;;;5.66;67.36
39267;BME280;24967;51.154;13.812;2023-03-15T11:53:22;99424.91;;;5.19;65.94
39267;BME280;24967;51.154;13.812;2023-03-15T11:55:52;99420.13;;;5.24;66.59
39267;BME280;24967;51.154;13.812;2023-03-15T11:58:27;99428.09;;;5.11;65.82
39267;BME280;24967;51.154;13.812;2023-03-15T12:01:00;99421.53;;;5.28;65.24
39267;BME280;24967;51.154;13.812;2023-03-15T12:03:36;99417.84;;;5.31;65.09
39267;BME280;24967;51.154;13.812;2023-03-15T12:06:17;99409.06;;;5.41;63.89
39267;BME280;24967;51.154;13.812;2023-03-15T12:08:59;99416.97;;;5.53;64.67
39267;BME280;24967;51.154;13.812;2023-03-15T12:11:37;99414.34;;;5.53;64.18
39267;BME280;24967;51.154;13.812;2023-03-15T12:14:20;99415.91;;;5.44;64.10
39267;BME280;24967;51.154;13.812;2023-03-15T12:16:48;99407.00;;;5.56;64.76
39267;BME280;24967;51.154;13.812;2023-03-15T12:19:16;99419.63;;;5.53;64.34
39267;BME280;24967;51.154;13.812;2023-03-15T12:21:45;99420.44;;;5.53;65.16
39267;BME280;24967;51.154;13.812;2023-03-15T12:24:15;99417.84;;;5.42;65.62
39267;BME280;24967;51.154;13.812;2023-03-15T12:26:49;99422.72;;;5.46;67.20
39267;BME280;24967;51.154;13.812;2023-03-15T12:29:21;99419.69;;;5.73;68.52
39267;BME280;24967;51.154;13.812;2023-03-15T12:31:52;99414.75;;;5.91;68.48
39267;BME280;24967;51.154;13.812;2023-03-15T12:34:26;99417.00;;;6.07;68.25
39267;BME280;24967;51.154;13.812;2023-03-15T12:36:57;99412.06;;;6.14;67.31
39267;BME280;24967;51.154;13.812;2023-03-15T12:39:41;99408.91;;;6.20;64.06
39267;BME280;24967;51.154;13.812;2023-03-15T12:42:57;99422.31;;;6.39;64.02
39267;BME280;24967;51.154;13.812;2023-03-15T12:45:36;99418.06;;;6.48;63.14
39267;BME280;24967;51.154;13.812;2023-03-15T12:48:19;99421.19;;;6.21;64.21
39267;BME280;24967;51.154;13.812;2023-03-15T12:50:51;99424.09;;;6.07;64.69
39267;BME280;24967;51.154;13.812;2023-03-15T12:53:21;99422.19;;;6.09;66.32
39267;BME280;24967;51.154;13.812;2023-03-15T12:55:49;99415.06;;;6.21;66.41
39267;BME280;24967;51.154;13.812;2023-03-15T12:58:20;99414.44;;;6.17;65.23
39267;BME280;24967;51.154;13.812;2023-03-15T13:00:51;99423.16;;;6.29;65.70
39267;BME280;24967;51.154;13.812;2023-03-15T13:03:20;99420.28;;;6.32;65.27
39267;BME280;24967;51.154;13.812;2023-03-15T13:05:51;99420.22;;;6.11;64.50
39267;BME280;24967;51.154;13.812;2023-03-15T13:08:23;99421.78;;;6.46;64.60